Arnett, Oklahoma
Current Conditions -  °F | °C
As of 10:53 AM on Sunday 23 Nov 2014 (Local Time) from KGAG Reporting Station
Overcast Overcast  
Wind Chill: 52°   Ceiling: 1700
Heat Index: 52°   Visibility: 10mi
Dew Point: 43°   Wind: 24mph
Humidity: 71%   Direction: 350°N
Pressure: 29.48"   Gusts: 33mph
Location:  36.14°N, 99.77°W
Report Text: KGAG 231653Z AUTO 35021G29KT 10SM FEW013 BKN017 OVC036 11/06 A2948 RMK AO2 PK WND 34029/1646 SLP972 T01110061
Loading
Personal Weather Stations






























Interactive Weather Map New forecast layout! Learn more

10-Day Weather Forecast

Advertisements
Track Severe Weather on mobile